createdAt,value
2022-08-17T00:01:24.187Z,45.35
2022-08-17T00:05:31.543Z,45.55
2022-08-17T00:09:33.601Z,51.72
2022-08-17T00:13:41.682Z,48.70
2022-08-17T00:17:47.177Z,51.67
2022-08-17T00:22:31.451Z,49.35
2022-08-17T00:26:14.294Z,48.22
2022-08-17T00:30:16.069Z,50.45
2022-08-17T00:34:18.017Z,46.15
2022-08-17T00:38:20.270Z,52.97
2022-08-17T00:42:21.877Z,49.88
2022-08-17T00:46:30.388Z,45.75
2022-08-17T00:50:32.458Z,49.47
2022-08-17T00:54:41.833Z,48.22
2022-08-17T00:58:44.651Z,44.33
2022-08-17T01:02:47.824Z,48.50
2022-08-17T01:06:50.963Z,41.60
2022-08-17T01:10:57.254Z,43.83
2022-08-17T01:15:05.906Z,41.13
2022-08-17T01:19:17.028Z,41.03
2022-08-17T01:23:21.351Z,41.97
2022-08-17T01:27:24.477Z,43.97
2022-08-17T01:31:30.627Z,36.83
2022-08-17T01:35:32.258Z,42.33
2022-08-17T01:39:42.237Z,41.10
2022-08-17T01:43:49.723Z,41.15
2022-08-17T01:47:52.964Z,40.67
2022-08-17T01:51:55.189Z,37.00
2022-08-17T01:56:08.518Z,39.58
2022-08-17T02:00:10.875Z,36.22
2022-08-17T02:04:12.822Z,38.63
2022-08-17T02:08:20.026Z,41.47
2022-08-17T02:12:39.340Z,43.58
2022-08-17T02:16:41.913Z,40.35
2022-08-17T02:20:43.819Z,33.10
2022-08-17T02:24:58.798Z,31.83
2022-08-17T02:29:04.166Z,28.10
2022-08-17T02:33:09.399Z,31.77
2022-08-17T02:37:11.136Z,25.77
2022-08-17T02:41:13.034Z,27.55
2022-08-17T02:45:20.812Z,31.38
2022-08-17T02:53:23.995Z,31.60
2022-08-17T02:57:27.243Z,24.83
2022-08-17T03:01:29.103Z,30.35
2022-08-17T03:05:33.869Z,24.08
2022-08-17T03:09:35.559Z,24.27
2022-08-17T03:13:37.412Z,20.00
2022-08-17T03:17:39.254Z,20.48
2022-08-17T03:21:40.910Z,23.27
2022-08-17T03:25:44.100Z,19.67
2022-08-17T03:29:45.967Z,17.80
2022-08-17T03:33:48.173Z,20.92
2022-08-17T03:37:56.961Z,28.45
2022-08-17T03:42:32.278Z,25.50
2022-08-17T03:46:52.923Z,21.45
2022-08-17T03:51:15.313Z,21.65
2022-08-17T03:55:36.329Z,26.38
2022-08-17T03:59:39.462Z,25.65
2022-08-17T04:03:42.603Z,23.27
2022-08-17T04:07:44.275Z,27.05
2022-08-17T04:11:45.856Z,30.52
2022-08-17T04:15:49.170Z,22.85
2022-08-17T04:19:50.933Z,28.90
2022-08-17T04:23:52.752Z,28.08
2022-08-17T04:27:55.034Z,32.65
2022-08-17T04:31:58.075Z,29.65
2022-08-17T04:36:02.119Z,24.17
2022-08-17T04:40:23.034Z,28.63
2022-08-17T04:44:36.950Z,30.95
2022-08-17T04:48:43.515Z,25.17
2022-08-17T04:52:46.384Z,31.30
2022-08-17T04:56:48.290Z,38.97
2022-08-17T05:00:50.168Z,29.88
2022-08-17T05:04:51.850Z,32.97
2022-08-17T05:08:54.845Z,26.73
2022-08-17T05:13:11.811Z,31.25
2022-08-17T05:17:13.553Z,30.17
2022-08-17T05:21:15.899Z,38.28
2022-08-17T05:25:24.957Z,38.95
2022-08-17T05:29:35.289Z,32.65
2022-08-17T05:33:44.291Z,36.25
2022-08-17T05:37:46.938Z,32.28
2022-08-17T05:41:48.649Z,32.90
2022-08-17T05:46:03.370Z,31.08
2022-08-17T05:50:09.435Z,29.88
2022-08-17T05:54:26.609Z,25.20
2022-08-17T05:58:49.479Z,27.95
2022-08-17T06:03:24.317Z,25.65
2022-08-17T06:07:37.793Z,27.33
2022-08-17T06:11:47.872Z,26.67
2022-08-17T06:16:04.702Z,24.70
2022-08-17T06:20:36.016Z,29.20
2022-08-17T06:24:58.993Z,27.15
2022-08-17T06:29:04.350Z,30.50
2022-08-17T06:33:21.169Z,31.88
2022-08-17T06:37:48.818Z,29.25
2022-08-17T06:41:59.244Z,27.40
2022-08-17T06:46:10.891Z,33.20
2022-08-17T06:50:22.091Z,32.58
2022-08-17T06:54:39.871Z,36.60
2022-08-17T06:58:44.199Z,35.10
2022-08-17T07:03:10.438Z,30.45
2022-08-17T07:07:31.733Z,27.52
2022-08-17T07:11:50.476Z,29.52
2022-08-17T07:15:57.146Z,28.20
2022-08-17T07:20:09.346Z,27.55
2022-08-17T07:24:28.134Z,25.98
2022-08-17T07:28:33.805Z,30.67
2022-08-17T07:32:57.816Z,23.77
2022-08-17T07:37:05.537Z,28.05
2022-08-17T07:41:10.680Z,27.38
2022-08-17T07:45:34.476Z,28.60
2022-08-17T07:49:42.506Z,23.63
2022-08-17T07:53:45.245Z,24.13
2022-08-17T07:57:55.668Z,21.05
2022-08-17T08:02:08.069Z,18.23
2022-08-17T08:06:24.398Z,17.38
2022-08-17T08:10:27.603Z,20.65
2022-08-17T08:14:38.357Z,23.58
2022-08-17T08:18:54.253Z,24.35
2022-08-17T08:23:03.442Z,20.60
2022-08-17T08:27:37.413Z,21.95
2022-08-17T08:31:57.779Z,19.73
2022-08-17T08:36:08.236Z,24.17
2022-08-17T08:40:39.235Z,18.60
2022-08-17T08:45:01.302Z,17.98
2022-08-17T08:49:45.173Z,14.80
2022-08-17T08:54:11.128Z,13.48
2022-08-17T08:58:41.840Z,14.57
2022-08-17T09:02:43.991Z,14.82
2022-08-17T09:06:57.232Z,13.13
2022-08-17T09:11:08.279Z,12.05
2022-08-17T09:15:28.507Z,12.93
2022-08-17T09:19:57.122Z,11.32
2022-08-17T09:28:14.200Z,10.07
2022-08-17T09:32:42.203Z,9.25
2022-08-17T09:36:51.849Z,9.93
2022-08-17T09:41:02.975Z,13.00
2022-08-17T09:45:24.088Z,8.82
2022-08-17T09:49:33.681Z,10.57
2022-08-17T09:53:37.222Z,8.80
2022-08-17T09:57:59.027Z,8.93
2022-08-17T10:02:28.475Z,10.32
2022-08-17T10:06:37.830Z,11.75
2022-08-17T10:10:56.435Z,13.23
2022-08-17T10:15:27.574Z,9.05
2022-08-17T10:19:39.727Z,11.05
2022-08-17T10:24:09.155Z,12.07
2022-08-17T10:28:20.246Z,11.00
2022-08-17T10:32:33.513Z,14.95
2022-08-17T10:36:46.197Z,13.98
2022-08-17T10:41:01.219Z,14.15
2022-08-17T10:45:17.442Z,15.07
2022-08-17T10:49:19.038Z,14.95
2022-08-17T10:53:32.641Z,14.98
2022-08-17T10:57:38.848Z,13.25
2022-08-17T11:01:43.363Z,13.35
2022-08-17T11:05:54.094Z,15.10
2022-08-17T11:10:17.886Z,13.13
2022-08-17T11:15:08.424Z,14.00
2022-08-17T11:19:35.700Z,13.73
2022-08-17T11:24:08.386Z,14.13
2022-08-17T11:28:22.038Z,14.65
2022-08-17T11:32:47.079Z,14.73
2022-08-17T11:37:01.989Z,16.25
2022-08-17T11:41:03.602Z,16.52
2022-08-17T11:45:31.657Z,15.55
2022-08-17T11:50:17.325Z,16.33
2022-08-17T11:54:33.731Z,16.88
2022-08-17T11:58:37.861Z,20.20
2022-08-17T12:02:48.164Z,20.25
2022-08-17T12:07:13.254Z,23.15
2022-08-17T12:11:58.789Z,18.67
2022-08-17T12:15:49.655Z,17.98
2022-08-17T12:19:53.052Z,20.70
2022-08-17T12:24:14.991Z,18.58
2022-08-17T12:28:36.583Z,21.10
2022-08-17T12:32:40.559Z,18.95
2022-08-17T12:36:42.416Z,19.02
2022-08-17T12:40:54.662Z,24.00
2022-08-17T12:45:00.154Z,24.17
2022-08-17T12:49:35.635Z,24.20
2022-08-17T12:53:37.342Z,24.08
2022-08-17T12:57:38.921Z,27.48
2022-08-17T13:01:42.246Z,22.25
2022-08-17T13:05:54.483Z,22.13
2022-08-17T13:09:56.202Z,24.35
2022-08-17T13:14:09.507Z,26.73
2022-08-17T13:18:33.612Z,24.75
2022-08-17T13:22:35.318Z,24.55
2022-08-17T13:26:49.116Z,23.35
2022-08-17T13:30:50.727Z,25.63
2022-08-17T13:35:11.931Z,23.95
2022-08-17T13:39:22.904Z,23.13
2022-08-17T13:43:45.301Z,27.83
2022-08-17T13:47:47.095Z,25.02
2022-08-17T13:51:51.510Z,27.63
2022-08-17T13:56:37.531Z,26.42
2022-08-17T14:00:36.765Z,24.55
2022-08-17T14:04:41.419Z,25.15
2022-08-17T14:08:43.045Z,28.27
2022-08-17T14:12:46.828Z,27.83
2022-08-17T14:16:50.222Z,24.10
2022-08-17T14:20:53.288Z,24.17
2022-08-17T14:24:54.923Z,21.48
2022-08-17T14:28:57.134Z,23.55
2022-08-17T14:32:59.537Z,24.77
2022-08-17T14:37:01.144Z,22.40
2022-08-17T14:41:03.048Z,20.73
2022-08-17T14:45:07.022Z,20.42
2022-08-17T14:49:30.265Z,21.27
2022-08-17T14:53:32.156Z,18.60
2022-08-17T14:57:34.627Z,17.40
2022-08-17T15:01:36.827Z,22.15
2022-08-17T15:05:39.497Z,22.88
2022-08-17T15:09:41.108Z,18.70
2022-08-17T15:13:53.107Z,20.42
2022-08-17T15:17:55.093Z,25.13
2022-08-17T15:21:57.021Z,18.15
2022-08-17T15:25:58.829Z,17.50
2022-08-17T15:30:01.907Z,15.15
2022-08-17T15:34:05.302Z,16.90
2022-08-17T15:38:12.345Z,18.45
2022-08-17T15:42:14.680Z,14.48
2022-08-17T15:46:20.378Z,17.08
2022-08-17T15:50:22.120Z,19.80
2022-08-17T15:54:23.776Z,15.07
2022-08-17T15:58:29.849Z,15.95
2022-08-17T16:03:44.837Z,15.25
2022-08-17T16:06:57.577Z,17.45
2022-08-17T16:10:59.633Z,17.58
2022-08-17T16:15:02.507Z,14.82
2022-08-17T16:19:04.129Z,18.00
2022-08-17T16:23:05.865Z,21.15
2022-08-17T16:27:12.523Z,20.58
2022-08-17T16:31:14.582Z,19.53
2022-08-17T16:35:16.970Z,15.18
2022-08-17T16:39:18.650Z,15.13
2022-08-17T16:43:20.300Z,20.20
2022-08-17T16:47:22.597Z,17.38
2022-08-17T16:51:24.776Z,16.33
2022-08-17T16:55:26.579Z,19.98
2022-08-17T16:59:30.446Z,16.90
2022-08-17T17:03:34.733Z,15.65
2022-08-17T17:07:40.222Z,17.50
2022-08-17T17:11:47.739Z,14.85
2022-08-17T17:15:58.987Z,14.63
2022-08-17T17:20:11.251Z,13.98
2022-08-17T17:24:36.856Z,14.85
2022-08-17T17:28:56.971Z,18.48
2022-08-17T17:33:29.772Z,14.75
2022-08-17T17:37:38.012Z,18.90
2022-08-17T17:41:54.069Z,12.00
2022-08-17T17:46:26.580Z,12.80
2022-08-17T17:50:34.628Z,15.07
2022-08-17T17:55:01.055Z,17.70
2022-08-17T17:59:18.516Z,15.52
2022-08-17T18:03:46.145Z,11.15
2022-08-17T18:07:59.204Z,12.73
2022-08-17T18:12:11.236Z,16.70
2022-08-17T18:16:14.400Z,12.93
2022-08-17T18:20:35.934Z,9.68
2022-08-17T18:24:57.160Z,13.95
2022-08-17T18:29:00.458Z,13.50
2022-08-17T18:33:23.680Z,12.32
2022-08-17T18:37:36.031Z,15.52
2022-08-17T18:41:47.014Z,13.45
2022-08-17T18:45:52.185Z,9.77
2022-08-17T18:50:27.384Z,11.02
2022-08-17T18:54:29.072Z,13.88
2022-08-17T18:58:30.789Z,15.68
2022-08-17T19:02:45.270Z,9.15
2022-08-17T19:07:03.507Z,12.27
2022-08-17T19:11:16.834Z,10.30
2022-08-17T19:15:30.094Z,9.63
2022-08-17T19:19:49.329Z,9.05
2022-08-17T19:24:01.365Z,10.95
2022-08-17T19:28:15.397Z,13.15
2022-08-17T19:32:32.069Z,11.15
2022-08-17T19:36:52.926Z,13.02
2022-08-17T19:41:06.704Z,9.88
2022-08-17T19:45:08.371Z,11.75
2022-08-17T19:49:22.666Z,12.65
2022-08-17T19:54:05.790Z,12.40
2022-08-17T19:58:17.954Z,10.77
2022-08-17T20:02:42.526Z,47.20
2022-08-17T20:06:49.232Z,42.15
2022-08-17T20:10:57.004Z,17.67
2022-08-17T20:15:04.892Z,17.13
2022-08-17T20:23:59.811Z,13.73
2022-08-17T20:28:29.569Z,11.20
2022-08-17T20:32:55.344Z,11.02
2022-08-17T20:37:08.783Z,10.82
2022-08-17T20:41:20.956Z,10.40
2022-08-17T20:45:26.168Z,11.90
2022-08-17T20:49:45.670Z,9.50
2022-08-17T20:53:47.211Z,13.55
2022-08-17T20:57:49.024Z,10.45
2022-08-17T21:02:20.675Z,9.38
2022-08-17T21:06:25.027Z,8.30
2022-08-17T21:10:26.539Z,10.35
2022-08-17T21:14:58.644Z,17.73
2022-08-17T21:19:09.867Z,14.18
2022-08-17T21:23:21.066Z,14.63
2022-08-17T21:28:00.531Z,19.27
2022-08-17T21:32:05.418Z,11.90
2022-08-17T21:36:15.151Z,9.40
2022-08-17T21:40:27.132Z,8.00
2022-08-17T21:44:35.185Z,7.95
2022-08-17T21:48:49.296Z,12.23
2022-08-17T21:52:57.209Z,9.25
2022-08-17T21:57:02.310Z,10.55
2022-08-17T22:01:19.389Z,11.98
2022-08-17T22:09:40.404Z,8.23
2022-08-17T22:13:42.044Z,10.48
2022-08-17T22:17:46.759Z,6.85
2022-08-17T22:22:03.253Z,13.13
2022-08-17T22:26:09.680Z,8.85
2022-08-17T22:30:31.996Z,7.30
2022-08-17T22:34:33.662Z,8.65
2022-08-17T22:38:35.652Z,9.25
2022-08-17T22:42:49.716Z,6.38
2022-08-17T22:46:54.456Z,8.85
2022-08-17T22:51:12.469Z,11.27
2022-08-17T22:55:36.267Z,13.13
2022-08-17T22:59:41.489Z,13.57
2022-08-17T23:03:54.715Z,11.93
2022-08-17T23:07:56.376Z,10.02
2022-08-17T23:11:58.780Z,17.95
2022-08-17T23:16:00.498Z,14.45
2022-08-17T23:20:02.778Z,8.43
2022-08-17T23:24:08.786Z,11.07
2022-08-17T23:28:11.334Z,10.57
2022-08-17T23:32:15.826Z,12.50
2022-08-17T23:36:17.548Z,8.90
2022-08-17T23:40:19.226Z,11.27
2022-08-17T23:44:24.294Z,11.07
2022-08-17T23:48:34.961Z,11.55
2022-08-17T23:52:41.236Z,7.10
2022-08-17T23:56:48.405Z,8.55
